TimeEST,TemperatureF,Dew PointF,Humidity,Sea Level PressureIn,VisibilityMPH,Wind Direction,Wind SpeedMPH,Gust SpeedMPH,PrecipitationIn,Events,Conditions,WindDirDegrees,DateUTC
12:54 AM,33.1,30.9,92,29.80,5.0,NNW,15.0,-,0.00,Snow,Light Snow,330,2012-11-08 05:54:00
1:54 AM,33.1,30.9,92,29.80,9.0,NNW,15.0,-,0.00,,Overcast,330,2012-11-08 06:54:00
2:34 AM,33.8,30.2,87,29.80,6.0,NNW,15.0,-,0.00,Snow,Light Snow,330,2012-11-08 07:34:00
2:54 AM,33.1,30.9,92,29.80,6.0,NNW,12.7,-,0.00,Snow,Light Snow,330,2012-11-08 07:54:00
3:54 AM,33.1,30.9,92,29.80,10.0,NW,5.8,-,0.00,,Overcast,320,2012-11-08 08:54:00
4:54 AM,33.1,30.0,89,29.81,10.0,WNW,4.6,-,N/A,,Overcast,300,2012-11-08 09:54:00
5:54 AM,34.0,30.0,85,29.81,10.0,NW,6.9,-,N/A,,Overcast,310,2012-11-08 10:54:00
6:54 AM,34.0,30.0,85,29.82,10.0,WNW,5.8,-,N/A,,Overcast,300,2012-11-08 11:54:00
7:54 AM,35.1,28.9,78,29.83,10.0,WNW,8.1,-,N/A,,Overcast,300,2012-11-08 12:54:00
8:54 AM,36.0,28.9,76,29.83,10.0,NW,8.1,-,N/A,,Overcast,310,2012-11-08 13:54:00
9:54 AM,37.9,28.9,70,29.84,10.0,NW,11.5,-,N/A,,Partly Cloudy,310,2012-11-08 14:54:00
10:54 AM,39.9,30.0,68,29.83,10.0,WNW,10.4,-,N/A,,Clear,300,2012-11-08 15:54:00
11:54 AM,43.0,28.0,56,29.82,10.0,NW,13.8,-,N/A,,Clear,310,2012-11-08 16:54:00
12:54 PM,46.9,28.0,48,29.80,10.0,NW,18.4,24.2,N/A,,Clear,320,2012-11-08 17:54:00
1:54 PM,48.0,23.0,37,29.80,10.0,NW,15.0,26.5,N/A,,Clear,320,2012-11-08 18:54:00
2:54 PM,48.9,23.0,36,29.80,10.0,NW,18.4,23.0,N/A,,Clear,310,2012-11-08 19:54:00
3:54 PM,46.9,21.0,36,29.82,10.0,NW,15.0,-,N/A,,Clear,320,2012-11-08 20:54:00
4:54 PM,43.0,23.0,45,29.83,10.0,NW,11.5,-,N/A,,Clear,310,2012-11-08 21:54:00
5:54 PM,42.1,23.0,47,29.86,10.0,WNW,10.4,-,N/A,,Partly Cloudy,300,2012-11-08 22:54:00
6:54 PM,39.0,23.0,53,29.88,10.0,WNW,6.9,-,N/A,,Clear,300,2012-11-08 23:54:00
7:54 PM,43.0,21.0,42,29.90,10.0,NNW,19.6,28.8,N/A,,Clear,330,2012-11-09 00:54:00
8:54 PM,41.0,21.9,47,29.93,10.0,NW,13.8,-,N/A,,Clear,320,2012-11-09 01:54:00
9:54 PM,39.9,21.9,49,29.94,10.0,NW,13.8,20.7,N/A,,Clear,320,2012-11-09 02:54:00
10:54 PM,39.0,21.9,50,29.95,10.0,NW,17.3,28.8,N/A,,Clear,320,2012-11-09 03:54:00
11:54 PM,37.0,23.0,57,29.96,10.0,NNW,15.0,18.4,N/A,,Clear,330,2012-11-09 04:54:00